Nearby METAR Reports

 

KLEX - Lexington, Kentucky, USA
Distance from station: WNW 7mi, 11km
Updated: Mon, 24-Apr-2017 2:54pm EDT
Overcast
Overcast
 Wind from NE
Wind: NE 15 mph , 24 km/h
Temperature: 66°F , 19°C
Dew Point: 52°F , 11°C
Humidity: 60%
Barometer: 29.83 inHg , 1010.2 hPa
Clouds: Overcast
Visibility: 10 miles , 16 km
Cloud details: Overcast 3400 ft
2017/04/24 18:54 KLEX 241854Z 04013KT 10SM OVC034 19/11 A2983 RMK AO2 SLP097 T01890111
KFFT - Frankfort, Kentucky, USA
Distance from station: WNW 26mi, 42km
Updated: Mon, 24-Apr-2017 2:53pm EDT
Clear
Clear
 Wind from E
Wind: E 13 mph , 20 km/h
Temperature: 72°F , 22°C
Dew Point: 52°F , 11°C
Humidity: 50%
Barometer: 29.81 inHg , 1009.5 hPa
Clouds: Clear
Visibility: 10 miles , 16 km
2017/04/24 18:53 KFFT 241853Z AUTO 09011KT 10SM CLR 22/11 A2981 RMK AO2 SLP088 T02220106
 
KIOB - Mount Sterling, Kentucky, USA
Distance from station: E 27mi, 44km
Updated: Mon, 24-Apr-2017 2:55pm EDT
Partly cloudy
Partly cloudy
 Wind from ESE
Wind: ESE 13 mph , 20 km/h, Gust: 17 mph , 28 km/h
Temperature: 66°F , 19°C
Dew Point: 52°F , 11°C
Humidity: 60%
Barometer: 29.86 inHg , 1011.2 hPa
Clouds: Partly cloudy
Visibility: 10 miles , 16 km
Cloud details: Partly cloudy 3200 ft
2017/04/24 18:55 KIOB 241855Z AUTO 12011G15KT 10SM SCT032 19/11 A2986 RMK AO2
KDVK - Danville, Kentucky, USA
Distance from station: SSW 33mi, 53km
Updated: Mon, 24-Apr-2017 2:55pm EDT
Overcast
Overcast
 Wind from E
Wind: E 8 mph , 13 km/h
Temperature: 68°F , 20°C
Dew Point: 54°F , 12°C
Humidity: 60%
Barometer: 29.82 inHg , 1009.8 hPa
Clouds: Overcast
Visibility: 10 miles , 16 km
Cloud details: Overcast 3700 ft
2017/04/24 18:55 KDVK 241855Z AUTO 08007KT 10SM OVC037 20/12 A2982 RMK AO2